• Join FlightAware (Why Join?)
  • Login
  • US Flag 
08:49PM EST


 

Airport Tracker/Info


-or-


 

Live Flight TrackerFlight Track Log ✈ N163CA ✈ 01-Mar-2014 ✈ KSFB - KFMY

Flight Track Log - Related Links

Times and Time Zones

All times are in EST time to prevent confusion due to time zone crossing. See the N163CA flight status page for this flight to view local times or setup timezone preferences in your user account.

Time Position Orientation Groundspeed Altitude Reporting Facility
EST Latitude Longitude Course Direction KTS MPH feet Rate Location/Type
04:45PM 28.5500 -81.6500 221° Southwest 148 170 6,500  Level Orlando TRACON
04:46PM 28.5167 -81.6833 221° Southwest 145 167 6,500 -60 Level Orlando TRACON
04:47PM 28.4833 -81.7000 204° Southwest 145 167 6,400 -120 Descending Orlando TRACON
04:48PM 28.4500 -81.7167 204° Southwest 141 162 6,300  Descending Orlando TRACON
04:49PM 28.4167 -81.7500 221° Southwest 139 160 6,400  Climbing Orlando TRACON
04:50PM 28.3667 -81.7667 196° South 140 161 6,400  Level Orlando TRACON
04:51PM 28.3333 -81.8000 221° Southwest 142 163 6,500  Climbing Orlando TRACON
04:52PM 28.3000 -81.8167 204° Southwest 141 162 6,400 -60 Descending Orlando TRACON
04:53PM 28.2667 -81.8333 204° Southwest 143 165 6,400  Level Orlando TRACON
04:54PM 28.2333 -81.8500 204° Southwest 143 165 6,400  Level Orlando TRACON
04:55PM 28.2000 -81.8833 221° Southwest 142 163 6,400 -300 Level Orlando TRACON
04:56PM 28.1667 -81.9000 204° Southwest 147 169 5,900 -480 Descending Orlando TRACON
04:57PM 28.1167 -81.9333 210° Southwest 157 181 5,400 -240 Descending Tampa TRACON
04:58PM 28.0833 -81.9500 204° Southwest 150 173 5,400  Level Tampa TRACON
04:59PM 28.0500 -81.9667 204° Southwest 141 162 5,400  Level Tampa TRACON
05:00PM 28.0167 -82.0000 221° Southwest 143 165 5,400  Level Tampa TRACON
05:01PM 27.9833 -82.0167 204° Southwest 145 167 5,400  Level Tampa TRACON
05:02PM 27.9500 -82.0333 204° Southwest 142 163 5,400  Level Tampa TRACON
05:03PM 27.9167 -82.0667 221° Southwest 140 161 5,400  Level Tampa TRACON
05:04PM 27.8833 -82.1000 221° Southwest 145 167 5,400  Level Tampa TRACON
05:05PM 27.8667 -82.1333 241° Southwest 144 166 5,400  Level Tampa TRACON
05:06PM 27.8333 -82.1667 221° Southwest 141 162 5,500  Climbing Tampa TRACON
05:07PM 27.8000 -82.1833 204° Southwest 141 162 5,400 -60 Descending Tampa TRACON
05:08PM 27.7667 -82.2167 222° Southwest 147 169 5,400 -420 Level Tampa TRACON
05:09PM 27.7333 -82.2333 204° Southwest 162 186 4,600 -840 Descending Tampa TRACON
05:10PM 27.7000 -82.2833 233° Southwest 176 203 3,700 -660 Descending Tampa TRACON
05:11PM 27.6667 -82.3167 222° Southwest 173 199 3,300 -540 Descending Tampa TRACON
05:12PM 27.6333 -82.3500 222° Southwest 151 174 2,700 -480 Descending Tampa TRACON
05:13PM 27.5833 -82.3833 211° Southwest 164 189 2,400 -240 Descending Tampa TRACON
05:14PM 27.5667 -82.4000 222° Southwest 142 163 2,300  Descending Tampa TRACON
05:15PM 27.5333 -82.4333 222° Southwest 124 143 2,500  Climbing Tampa TRACON
05:16PM 27.5000 -82.4667 222° Southwest 126 145 2,400 -60 Descending Tampa TRACON
05:17PM 27.4667 -82.4500 156° South 114 131 2,400  Level Tampa TRACON
05:18PM 27.4500 -82.4333 138° Southeast 110 127 2,400  Level Tampa TRACON
05:19PM 27.4167 -82.4167 156° South 116 133 2,400  Level Tampa TRACON
05:20PM 27.3833 -82.4333 204° Southwest 117 135 2,400  Level Tampa TRACON
05:21PM 27.3667 -82.4500 222° Southwest 108 124 2,400 -540 Level Tampa TRACON
05:22PM 27.3333 -82.4667 204° Southwest 128 147 1,400 -840 Descending Tampa TRACON
05:23PM 27.3500 -82.5000 299° West 89 102 800 -420 Descending Tampa TRACON
05:24PM 27.3667 -82.5167 318° Northwest 87 100 600 -240 Descending Tampa TRACON
05:25PM 27.3833 -82.5333 318° Northwest 80 92 300 -120 Descending Tampa TRACON
05:27PM 27.4000 -82.5667 299° West 90 104 400 360 Climbing Tampa TRACON
05:28PM 27.4333 -82.5833 336° Northwest 97 112 1,400 540 Climbing Tampa TRACON
05:29PM 27.4667 -82.5833 360° North 115 132 1,600 120 Climbing Tampa TRACON
05:30PM 27.4667 -82.5500 90° East 114 131 1,700 540 Climbing Tampa TRACON
05:31PM 27.5000 -82.5333 24° Northeast 96 110 2,700 780 Climbing Tampa TRACON
05:32PM 27.5167 -82.5167 42° Northeast 103 119 3,400 660 Climbing Tampa TRACON
05:33PM 27.5333 -82.4833 61° Northeast 109 125 4,200 720 Climbing Tampa TRACON
05:34PM 27.5667 -82.4667 24° Northeast 115 132 5,000 600 Climbing Tampa TRACON
05:35PM 27.5833 -82.4333 61° Northeast 122 140 5,500 180 Climbing Tampa TRACON
05:36PM 27.6167 -82.4000 42° Northeast 158 182 5,400 -60 Descending Tampa TRACON
05:37PM 27.6500 -82.3833 24° Northeast 150 173 5,400  Level Tampa TRACON
05:38PM 27.6833 -82.3500 42° Northeast 142 163 5,500  Climbing Tampa TRACON
05:39PM 27.7000 -82.3167 61° Northeast 152 175 5,400 -60 Descending Tampa TRACON
05:40PM 27.7333 -82.2833 42° Northeast 153 176 5,400  Level Tampa TRACON
05:41PM 27.7667 -82.2500 42° Northeast 151 174 5,400  Level Tampa TRACON
05:42PM 27.8000 -82.2167 41° Northeast 150 173 5,400  Level Tampa TRACON
05:43PM 27.8333 -82.1833 41° Northeast 153 176 5,400  Level Tampa TRACON
05:44PM 27.8667 -82.1500 41° Northeast 152 175 5,400  Level Tampa TRACON
05:45PM 27.8833 -82.1167 60° Northeast 148 170 5,400  Level Tampa TRACON
05:46PM 27.9167 -82.1000 24° Northeast 141 162 5,400  Level Tampa TRACON
05:47PM 27.9500 -82.0667 41° Northeast 132 152 5,400  Level Tampa TRACON
05:48PM 27.9833 -82.0333 41° Northeast 135 155 5,400  Level Tampa TRACON
05:49PM 28.0167 -82.0167 24° Northeast 134 154 5,400 -60 Level Tampa TRACON
05:51PM 27.9765 -82.0113 173° South  Level FlightAware Approximate
05:58PM 27.7667 -82.0816 270° West  Level FlightAware Approximate
05:59PM 27.7667 -82.1244 270° West  Level FlightAware Approximate
06:00PM 27.7667 -82.1672 270° West  Level FlightAware Approximate
06:01PM 27.7667 -82.2100 270° West  Level FlightAware Approximate
06:02PM 27.7309 -82.1994 165° South  Level Estimated
06:03PM 27.6950 -82.1887 165° South  Level Estimated
06:04PM 27.6592 -82.1781 165° South  Level Estimated
06:05PM 27.6234 -82.1675 165° South  Level Estimated
06:06PM 27.5875 -82.1569 165° South  Level Estimated
06:07PM 27.5517 -82.1463 165° South  Level Estimated
06:08PM 27.5159 -82.1357 165° South  Level Estimated
06:09PM 27.4800 -82.1251 165° South  Level Estimated
06:10PM 27.4442 -82.1145 165° South  Level Estimated
06:11PM 27.4090 -82.1041 165° South  Level Estimated
06:12PM 27.3739 -82.0937 165° South  Level Estimated
06:13PM 27.3387 -82.0834 165° South  Level Estimated
06:14PM 27.3035 -82.0730 165° South  Level Estimated
06:15PM 27.2683 -82.0626 165° South  Level Estimated
06:16PM 27.2331 -82.0523 165° South  Level Estimated
06:17PM 27.1980 -82.0419 165° South  Level Estimated
06:18PM 27.1628 -82.0316 165° South  Level Estimated
06:19PM 27.1276 -82.0213 165° South  Level Estimated
06:20PM 27.0929 -82.0111 165° South  Level Estimated
06:21PM 27.0582 -82.0009 165° South  Level Estimated
06:22PM 27.0236 -81.9908 165° South  Level Estimated
06:23PM 26.9889 -81.9806 165° South  Level Estimated
06:24PM 26.9542 -81.9705 165° South  Level Estimated
06:25PM 26.9195 -81.9603 165° South  Level Estimated
06:26PM 26.8849 -81.9502 165° South  Level Estimated
06:27PM 26.8516 -81.9405 165° South  Level Estimated
06:28PM 26.8184 -81.9308 165° South  Level Estimated
06:29PM 26.7852 -81.9211 165° South  Level Estimated
06:30PM 26.7519 -81.9114 165° South  Level Estimated
06:31PM 26.7187 -81.9017 165° South  Level Estimated
06:32PM 26.6855 -81.8920 165° South  Level Estimated
06:33PM 26.6523 -81.8823 165° South  Level Estimated
06:34PM 26.6190 -81.8727 165° South  Level Estimated
06:35PM 26.5866 -81.8633 165° South  Level Estimated
06:36PM 26.5866 -81.8633 North  Level Estimated
06:37PM 26.5866 -81.8633 North  Level Estimated
06:38PM 26.5866 -81.8633 North  Level Estimated
06:39PM 26.5866 -81.8633 North  Level Estimated
06:40PM 26.5866 -81.8633 North  Level Estimated
06:41PM 26.5866 -81.8633 North  Level Estimated
06:42PM 26.5866 -81.8633 North  Level Estimated
06:43PM 26.5866 -81.8633 North  Level Estimated
06:44PM 26.5866 -81.8633 North  Level Estimated
06:45PM 26.5866 -81.8633 North  Level Estimated
06:46PM 26.5866 -81.8633 North  Level Estimated
06:47PM 26.5866 -81.8633 North  Level Estimated
06:48PM 26.5866 -81.8633 North  Level Estimated
06:49PM 26.5866 -81.8633 North  Level Estimated
06:50PM 26.5866 -81.8633 North  Level Estimated
06:51PM 26.5866 -81.8633 North  Level Estimated
06:52PM 26.5866 -81.8633 North  Level Estimated
06:53PM 26.5866 -81.8633 North  Level Estimated
06:54PM 26.5866 -81.8633 North  Level Estimated
06:55PM 26.5866 -81.8633 North  Level Estimated
06:56PM 26.5866 -81.8633 North  Level Estimated
06:57PM 26.5866 -81.8633 North  Level Estimated
06:58PM 26.5866 -81.8633 North  Level Estimated
06:59PM 26.5866 -81.8633 North  Level Estimated
07:00PM 26.5866 -81.8633 North  Level Estimated
07:01PM 26.5866 -81.8633 North  Level Estimated
07:02PM 26.5866 -81.8633 North  Level Estimated
07:03PM 26.5866 -81.8633 North  Level Estimated
07:04PM 26.5866 -81.8633 North  Level Estimated
07:05PM 26.5866 -81.8633 North  Level Estimated
07:06PM 26.5866 -81.8633 North  Level Estimated
07:07PM 26.5866 -81.8633 North  Level Estimated
07:08PM 26.5866 -81.8633 North  Level Estimated
07:09PM 26.5866 -81.8633 North  Level Estimated
07:10PM 26.5866 -81.8633 North  Level Estimated
07:11PM 26.5866 -81.8633 North  Level Estimated
07:12PM 26.5866 -81.8633 North  Level Estimated
07:13PM 26.5866 -81.8633 North  Level Estimated
07:14PM 26.5866 -81.8633 North  Level Estimated
07:15PM 26.5866 -81.8633 North  Level Estimated
07:16PM 26.5866 -81.8633 North  Level Estimated
07:17PM 26.5866 -81.8633 North  Level Estimated
07:18PM 26.5866 -81.8633 North  Level Estimated
07:19PM 26.5866 -81.8633 North  Level Estimated
07:20PM 26.5866 -81.8633 North  Level Estimated
07:21PM 26.5866 -81.8633 North  Level Estimated
07:22PM 26.5866 -81.8633 North  Level Estimated
07:23PM 26.5866 -81.8633 North  Level Estimated
07:24PM 26.5866 -81.8633 North  Level Estimated
07:25PM 26.5866 -81.8633 North  Level Estimated
07:26PM 26.5866 -81.8633 North  Level Estimated
07:27PM 26.5866 -81.8633 North  Level Estimated
07:28PM 26.5866 -81.8633 North  Level Estimated
07:29PM 26.5866 -81.8633 North  Level Estimated
07:30PM 26.5866 -81.8633 North  Level Estimated
07:31PM 26.5866 -81.8633 North  Level Estimated
07:32PM 26.5866 -81.8633 North  Level Estimated
07:33PM 26.5866 -81.8633 North  Level Estimated
07:34PM 26.5866 -81.8633 North  Level Estimated
07:35PM 26.5866 -81.8633 North  Level Estimated
07:36PM 26.5866 -81.8633 North  Level Estimated
07:37PM 26.5866 -81.8633 North  Level Estimated
07:38PM 26.5866 -81.8633 North  Level Estimated
07:39PM 26.5866 -81.8633 North  Level Estimated
07:40PM 26.5866 -81.8633 North  Level Estimated
07:41PM 26.5866 -81.8633 North  Level Estimated
07:42PM 26.5866 -81.8633 North  Level Estimated
07:43PM 26.5866 -81.8633 North  Level Estimated
07:44PM 26.5866 -81.8633 North  Level Estimated
07:45PM 26.5866 -81.8633 North  Level Estimated
07:46PM 26.5866 -81.8633 North  Level Estimated
07:47PM 26.5866 -81.8633 North  Level Estimated
07:48PM 26.5866 -81.8633 North  Level Estimated
07:49PM 26.5866 -81.8633 North  Level Estimated
07:50PM 26.5866 -81.8633 North  Level Estimated
07:51PM 26.5866 -81.8633 North  Level Estimated
07:52PM 26.5866 -81.8633 North  Level Estimated
07:53PM 26.5866 -81.8633 North  Level Estimated
07:54PM 26.5866 -81.8633 North  Level Estimated
07:55PM 26.5866 -81.8633 North  Level Estimated
07:56PM 26.5866 -81.8633 North  Level Estimated
07:57PM 26.5866 -81.8633 North  Level Estimated
07:58PM 26.5866 -81.8633 North  Level Estimated
07:59PM 26.5866 -81.8633 North  Level Estimated
07:59PM 28.7833 -81.2167 North 68 78 1,000  Level Orlando TRACON
08:00PM 26.5866 -81.8633 North  Level Estimated
08:00PM 28.8167 -81.2000 24° Northeast 105 121 1,800  Level Orlando TRACON
08:01PM 26.5866 -81.8633 North  Level Estimated
08:01PM 28.8333 -81.2167 319° Northwest 104 120 2,700  Level Orlando TRACON
08:02PM 26.5866 -81.8633 North  Level Estimated
08:02PM 28.8167 -81.2333 221° Southwest 103 119 3,500  Level Orlando TRACON
08:03PM 26.5866 -81.8633 North  Level Estimated
08:03PM 28.8167 -81.2667 270° West 107 123 4,200  Level Orlando TRACON
08:04PM 28.8167 -81.3167 270° West 112 129 4,400 120 Climbing Orlando TRACON
08:05PM 28.8167 -81.3500 270° West 137 158 4,500 -60 Climbing Orlando TRACON
08:06PM 28.8167 -81.4000 270° West 145 167 4,300  Descending Orlando TRACON
08:07PM 28.8167 -81.4333 270° West 143 165 4,500  Climbing Orlando TRACON
08:08PM 28.8167 -81.4833 270° West 141 162 4,400 -120 Descending Orlando TRACON
08:09PM 28.8167 -81.5333 270° West 144 166 4,300  Descending Orlando TRACON
08:10PM 28.8167 -81.5833 270° West 145 167 4,500 60 Climbing Orlando TRACON
08:12PM 28.8203 -81.6697 273° West 141 162 4,500  Level Jacksonville Center
08:13PM 28.8208 -81.7172 271° West 145 167 4,500  Level Jacksonville Center
08:14PM 28.8253 -81.7597 277° West 144 166 4,500 -60 Level Jacksonville Center
08:15PM 28.8589 -81.7925 320° Northwest 152 175 4,400  Descending Jacksonville Center
08:16PM 28.8989 -81.8111 338° Northwest 152 175 4,600  Climbing Jacksonville Center
08:17PM 28.9386 -81.8319 335° Northwest 153 176 4,500  Descending Jacksonville Center
08:18PM 28.9764 -81.8506 337° Northwest 153 176 4,600  Climbing Jacksonville Center
08:19PM 29.0100 -81.8717 331° Northwest 154 177 4,500 -60 Descending Jacksonville Center
08:20PM 29.0478 -81.8972 329° Northwest 153 176 4,500  Level Jacksonville Center
08:21PM 29.0875 -81.9136 340° North 156 180 4,500 -60 Level Jacksonville Center
08:22PM 29.1253 -81.9369 332° Northwest 154 177 4,400  Descending Jacksonville Center
08:23PM 29.1608 -81.9653 325° Northwest 152 175 4,500  Climbing Jacksonville Center
08:24PM 29.1967 -81.9933 326° Northwest 155 178 4,500  Level Jacksonville Center
08:25PM 29.2364 -82.0097 340° North 151 174 4,500 -180 Level Jacksonville Center
08:26PM 29.2742 -82.0308 334° Northwest 151 174 4,200  Descending Jacksonville Center
08:27PM 29.3097 -82.0542 330° Northwest 135 155 4,600  Climbing Jacksonville Center
08:28PM 29.3453 -82.0825 325° Northwest 158 182 4,300 -180 Descending Jacksonville Center
08:29PM 29.3808 -82.0989 338° Northwest 143 165 4,300  Level Jacksonville Center
08:31PM 29.4144 -82.1178 334° Northwest 132 152 4,300 -300 Level Jacksonville Center
08:32PM 29.4481 -82.1367 334° Northwest 136 157 3,800 -420 Descending Jacksonville Center
08:33PM 29.4794 -82.1625 324° Northwest 136 157 3,500 -480 Descending Jacksonville Center
08:34PM 29.5089 -82.1861 325° Northwest 134 154 2,900 -720 Descending Jacksonville Center
08:35PM 29.5361 -82.2194 313° West 127 146 2,100 -660 Descending Jacksonville Center
08:36PM 29.5614 -82.2456 318° Northwest 121 139 1,600 -360 Descending Jacksonville Center
08:37PM 29.5864 -82.2669 323° Northwest 111 128 1,400 -60 Descending Jacksonville Center
08:38PM 29.6117 -82.2833 331° Northwest 102 117 1,500 60 Climbing Jacksonville Center
08:39PM 29.6367 -82.3000 330° Northwest 103 119 1,600 -300 Climbing Jacksonville Center
08:40PM 29.6597 -82.3119 336° Northwest 99 114 1,000 -480 Descending Jacksonville Center
08:41PM 29.6869 -82.3092 North 86 99 700 -120 Descending Jacksonville Center
08:43PM 29.6844 -82.2519 93° East 102 117 700 60 Level Jacksonville Center
08:44PM 29.6783 -82.2447 134° Southeast 89 102 1,000 720 Climbing Jacksonville Center
08:45PM 29.6489 -82.2450 180° South 107 123 1,800 720 Climbing Jacksonville Center
08:46PM 29.6156 -82.2428 177° South 109 125 2,500 660 Climbing Jacksonville Center
08:47PM 29.5864 -82.2406 176° South 109 125 3,200 720 Climbing Jacksonville Center
08:48PM 29.5572 -82.2408 180° South 101 116 4,000 660 Climbing Jacksonville Center
08:49PM 29.5278 -82.2411 180° South 103 119 4,600 540 Climbing Jacksonville Center
08:50PM 29.4986 -82.2364 172° South 109 125 5,200 420 Climbing Jacksonville Center
08:51PM 29.4672 -82.2367 180° South 111 128 5,500 120 Climbing Jacksonville Center
08:52PM 29.4278 -82.2369 180° South 133 153 5,500  Level Jacksonville Center
08:53PM 29.3922 -82.2347 177° South 134 154 5,500  Level Jacksonville Center